createdAt,value
2023-05-03T00:01:18.354Z,1.40
2023-05-03T00:03:46.415Z,1.20
2023-05-03T00:06:14.869Z,1.17
2023-05-03T00:08:44.048Z,2.03
2023-05-03T00:11:11.556Z,1.40
2023-05-03T00:13:39.138Z,1.30
2023-05-03T00:16:07.347Z,1.70
2023-05-03T00:18:34.789Z,1.37
2023-05-03T00:21:02.317Z,1.90
2023-05-03T00:23:29.807Z,1.40
2023-05-03T00:25:59.605Z,1.90
2023-05-03T00:28:27.665Z,1.80
2023-05-03T00:30:55.290Z,1.40
2023-05-03T00:33:22.788Z,1.40
2023-05-03T00:35:50.263Z,1.50
2023-05-03T00:38:17.765Z,1.50
2023-05-03T00:40:45.222Z,1.53
2023-05-03T00:43:14.392Z,1.53
2023-05-03T00:45:42.039Z,1.53
2023-05-03T00:48:09.834Z,1.50
2023-05-03T00:50:38.444Z,1.30
2023-05-03T00:53:06.073Z,1.50
2023-05-03T00:55:34.306Z,1.30
2023-05-03T00:58:01.783Z,1.47
2023-05-03T01:00:30.995Z,1.63
2023-05-03T01:02:59.117Z,1.60
2023-05-03T01:05:29.933Z,1.90
2023-05-03T01:08:08.349Z,1.67
2023-05-03T01:10:43.234Z,1.67
2023-05-03T01:13:19.533Z,1.50
2023-05-03T01:16:00.369Z,1.27
2023-05-03T01:18:32.752Z,1.90
2023-05-03T01:21:01.644Z,1.70
2023-05-03T01:23:34.575Z,2.03
2023-05-03T01:26:15.665Z,1.77
2023-05-03T01:28:43.121Z,2.00
2023-05-03T01:31:11.730Z,2.03
2023-05-03T01:33:47.866Z,1.97
2023-05-03T01:36:24.023Z,1.77
2023-05-03T01:38:51.619Z,1.57
2023-05-03T01:41:22.232Z,1.60
2023-05-03T01:43:50.469Z,1.90
2023-05-03T01:46:18.081Z,1.50
2023-05-03T01:48:45.627Z,1.80
2023-05-03T01:51:13.182Z,1.70
2023-05-03T01:53:42.030Z,1.90
2023-05-03T01:56:09.566Z,1.70
2023-05-03T01:58:38.666Z,1.63
2023-05-03T02:01:07.211Z,1.70
2023-05-03T02:03:35.248Z,1.30
2023-05-03T02:06:02.833Z,1.97
2023-05-03T02:08:30.664Z,2.00
2023-05-03T02:10:58.162Z,1.70
2023-05-03T02:13:25.629Z,1.83
2023-05-03T02:15:55.447Z,2.07
2023-05-03T02:18:24.567Z,2.07
2023-05-03T02:20:52.504Z,1.63
2023-05-03T02:23:20.013Z,1.60
2023-05-03T02:25:47.465Z,1.40
2023-05-03T02:28:15.003Z,1.90
2023-05-03T02:30:43.270Z,1.57
2023-05-03T02:33:12.113Z,1.53
2023-05-03T02:35:40.252Z,1.73
2023-05-03T02:38:07.764Z,2.47
2023-05-03T02:40:35.345Z,2.17
2023-05-03T02:43:03.772Z,1.80
2023-05-03T02:45:32.204Z,1.83
2023-05-03T02:48:00.101Z,1.63
2023-05-03T02:50:29.580Z,1.73
2023-05-03T02:52:57.109Z,1.70
2023-05-03T02:55:25.090Z,1.50
2023-05-03T02:57:52.595Z,1.50
2023-05-03T03:00:21.576Z,1.67
2023-05-03T03:02:49.160Z,2.00
2023-05-03T03:05:17.631Z,1.73
2023-05-03T03:07:51.380Z,1.80
2023-05-03T03:10:19.141Z,1.80
2023-05-03T03:12:47.099Z,2.10
2023-05-03T03:15:23.352Z,1.77
2023-05-03T03:17:51.813Z,2.00
2023-05-03T03:20:19.495Z,2.07
2023-05-03T03:22:50.388Z,2.40
2023-05-03T03:25:18.052Z,1.90
2023-05-03T03:27:45.680Z,1.70
2023-05-03T03:30:14.218Z,1.80
2023-05-03T03:32:53.505Z,2.03
2023-05-03T03:35:29.149Z,1.97
2023-05-03T03:37:57.939Z,1.93
2023-05-03T03:40:26.628Z,1.70
2023-05-03T03:42:56.585Z,1.90
2023-05-03T03:45:24.283Z,2.03
2023-05-03T03:47:53.653Z,1.80
2023-05-03T03:50:23.195Z,2.10
2023-05-03T03:52:50.749Z,2.33
2023-05-03T03:55:19.754Z,1.90
2023-05-03T03:57:49.546Z,2.30
2023-05-03T04:00:18.498Z,2.37
2023-05-03T04:02:52.322Z,2.40
2023-05-03T04:05:21.019Z,2.67
2023-05-03T04:07:48.854Z,1.80
2023-05-03T04:10:19.456Z,1.57
2023-05-03T04:12:46.921Z,2.10
2023-05-03T04:15:16.498Z,2.20
2023-05-03T04:17:46.354Z,2.83
2023-05-03T04:20:14.478Z,2.23
2023-05-03T04:22:46.465Z,2.17
2023-05-03T04:25:17.056Z,3.00
2023-05-03T04:27:50.935Z,2.20
2023-05-03T04:30:19.824Z,3.00
2023-05-03T04:32:50.607Z,2.43
2023-05-03T04:35:18.685Z,2.80
2023-05-03T04:37:48.007Z,2.80
2023-05-03T04:40:19.872Z,2.70
2023-05-03T04:42:54.507Z,2.80
2023-05-03T04:45:22.056Z,3.03
2023-05-03T04:47:50.484Z,2.57
2023-05-03T04:50:18.141Z,2.57
2023-05-03T04:52:49.712Z,2.60
2023-05-03T04:55:19.482Z,2.27
2023-05-03T04:57:47.819Z,3.60
2023-05-03T05:00:17.410Z,3.07
2023-05-03T05:02:52.082Z,3.07
2023-05-03T05:05:20.649Z,2.90
2023-05-03T05:07:48.880Z,3.00
2023-05-03T05:10:19.132Z,3.40
2023-05-03T05:12:47.021Z,2.80
2023-05-03T05:15:14.863Z,3.43
2023-05-03T05:17:44.176Z,3.53
2023-05-03T05:20:13.398Z,3.70
2023-05-03T05:22:45.319Z,3.90
2023-05-03T05:25:12.907Z,3.43
2023-05-03T05:27:42.370Z,4.20
2023-05-03T05:30:10.334Z,3.53
2023-05-03T05:32:41.153Z,3.27
2023-05-03T05:35:12.730Z,3.43
2023-05-03T05:37:43.220Z,4.17
2023-05-03T05:40:12.402Z,4.70
2023-05-03T05:42:46.258Z,3.80
2023-05-03T05:45:13.968Z,4.20
2023-05-03T05:47:42.670Z,3.97
2023-05-03T05:50:17.664Z,3.30
2023-05-03T05:52:51.692Z,4.10
2023-05-03T05:55:19.974Z,4.63
2023-05-03T05:57:47.535Z,4.70
2023-05-03T06:00:17.491Z,4.00
2023-05-03T06:02:46.441Z,4.40
2023-05-03T06:05:18.478Z,3.93
2023-05-03T06:07:46.564Z,3.50
2023-05-03T06:10:15.508Z,3.77
2023-05-03T06:12:47.155Z,3.97
2023-05-03T06:15:19.547Z,3.70
2023-05-03T06:17:47.957Z,4.93
2023-05-03T06:20:16.417Z,4.57
2023-05-03T06:22:44.215Z,4.00
2023-05-03T06:25:15.414Z,4.00
2023-05-03T06:27:48.036Z,4.17
2023-05-03T06:30:16.137Z,4.30
2023-05-03T06:32:43.865Z,3.93
2023-05-03T06:35:13.704Z,3.87
2023-05-03T06:37:43.565Z,4.17
2023-05-03T06:40:11.383Z,4.40
2023-05-03T06:42:38.918Z,4.67
2023-05-03T06:45:18.339Z,4.13
2023-05-03T06:47:46.024Z,4.80
2023-05-03T06:50:13.852Z,3.40
2023-05-03T06:52:41.383Z,4.53
2023-05-03T06:55:09.593Z,2.90
2023-05-03T06:57:37.039Z,2.90
2023-05-03T07:00:07.182Z,3.27
2023-05-03T07:02:36.208Z,3.60
2023-05-03T07:05:03.897Z,2.70
2023-05-03T07:07:31.354Z,3.07
2023-05-03T07:09:58.862Z,2.70
2023-05-03T07:12:28.266Z,2.50
2023-05-03T07:14:56.580Z,2.90
2023-05-03T07:17:24.594Z,2.57
2023-05-03T07:19:53.730Z,2.27
2023-05-03T07:22:24.649Z,2.43
2023-05-03T07:24:52.721Z,2.00
2023-05-03T07:27:20.254Z,2.27
2023-05-03T07:29:47.832Z,1.67
2023-05-03T07:32:15.570Z,1.83
2023-05-03T07:34:43.141Z,1.47
2023-05-03T07:37:12.024Z,1.63
2023-05-03T07:39:40.231Z,2.07
2023-05-03T07:42:07.785Z,2.07
2023-05-03T07:44:35.273Z,1.60
2023-05-03T07:47:02.739Z,1.60
2023-05-03T07:49:30.923Z,2.30
2023-05-03T07:51:59.617Z,2.10
2023-05-03T07:54:28.477Z,1.77
2023-05-03T07:56:55.931Z,1.93
2023-05-03T07:59:23.380Z,1.60
2023-05-03T08:01:51.033Z,1.70
2023-05-03T08:04:18.773Z,1.53
2023-05-03T08:06:46.464Z,1.70
2023-05-03T08:09:14.096Z,3.60
2023-05-03T08:11:44.068Z,1.97
2023-05-03T08:14:11.976Z,1.63
2023-05-03T08:16:39.922Z,2.40
2023-05-03T08:19:07.977Z,1.50
2023-05-03T08:21:35.564Z,1.27
2023-05-03T08:24:05.981Z,1.40
2023-05-03T08:26:33.525Z,1.40
2023-05-03T08:29:03.493Z,1.57
2023-05-03T08:31:31.636Z,1.43
2023-05-03T08:33:59.383Z,1.20
2023-05-03T08:36:27.493Z,1.70
2023-05-03T08:38:54.996Z,1.40
2023-05-03T08:41:29.132Z,1.80
2023-05-03T08:43:59.389Z,1.40
2023-05-03T08:46:29.324Z,1.37
2023-05-03T08:48:57.051Z,1.33
2023-05-03T08:51:25.536Z,1.50
2023-05-03T08:53:53.378Z,1.73
2023-05-03T08:56:26.618Z,1.47
2023-05-03T08:58:54.239Z,1.37
2023-05-03T09:01:21.864Z,2.07
2023-05-03T09:03:52.472Z,1.57
2023-05-03T09:06:21.618Z,2.03
2023-05-03T09:08:50.021Z,1.50
2023-05-03T09:11:25.089Z,1.50
2023-05-03T09:13:53.814Z,2.07
2023-05-03T09:16:27.236Z,1.60
2023-05-03T09:19:00.010Z,2.30
2023-05-03T09:21:27.897Z,2.20
2023-05-03T09:23:55.377Z,1.37
2023-05-03T09:26:30.096Z,1.70
2023-05-03T09:28:59.229Z,2.00
2023-05-03T09:31:28.268Z,1.67
2023-05-03T09:33:56.100Z,1.60
2023-05-03T09:36:25.717Z,1.47
2023-05-03T09:38:53.745Z,1.50
2023-05-03T09:41:29.096Z,1.80
2023-05-03T09:43:58.685Z,1.70
2023-05-03T09:46:27.334Z,1.30
2023-05-03T09:48:57.030Z,1.67
2023-05-03T09:51:26.216Z,2.00
2023-05-03T09:53:55.284Z,1.57
2023-05-03T09:56:26.436Z,11.87
2023-05-03T09:58:54.843Z,1.53
2023-05-03T10:01:24.976Z,1.53
2023-05-03T10:03:54.240Z,1.60
2023-05-03T10:06:28.635Z,1.80
2023-05-03T10:09:02.073Z,1.80
2023-05-03T10:11:29.997Z,1.47
2023-05-03T10:13:57.893Z,1.80
2023-05-03T10:16:28.809Z,1.63
2023-05-03T10:19:05.403Z,1.60
2023-05-03T10:21:49.707Z,1.83
2023-05-03T10:24:18.272Z,1.80
2023-05-03T10:26:47.380Z,2.60
2023-05-03T10:29:49.341Z,1.83
2023-05-03T10:32:31.055Z,1.43
2023-05-03T10:35:03.566Z,1.63
2023-05-03T10:37:34.482Z,1.60
2023-05-03T10:40:10.605Z,2.30
2023-05-03T10:42:39.116Z,2.33
2023-05-03T10:45:09.877Z,1.63
2023-05-03T10:47:37.461Z,1.90
2023-05-03T10:50:27.648Z,1.53
2023-05-03T10:52:56.700Z,2.10
2023-05-03T10:55:25.776Z,3.80
2023-05-03T10:57:55.755Z,1.87
2023-05-03T11:00:28.722Z,2.10
2023-05-03T11:03:10.741Z,1.83
2023-05-03T11:05:39.045Z,1.90
2023-05-03T11:08:12.857Z,1.90
2023-05-03T11:10:41.033Z,1.57
2023-05-03T11:13:08.816Z,1.50
2023-05-03T11:15:36.681Z,1.57
2023-05-03T11:18:07.052Z,1.70
2023-05-03T11:20:34.769Z,2.20
2023-05-03T11:23:02.651Z,1.83
2023-05-03T11:25:33.330Z,2.50
2023-05-03T11:28:01.241Z,2.67
2023-05-03T11:30:29.365Z,1.97
2023-05-03T11:32:57.206Z,1.70
2023-05-03T11:35:26.914Z,2.13
2023-05-03T11:37:54.737Z,2.30
2023-05-03T11:40:22.207Z,1.93
2023-05-03T11:42:55.410Z,2.17
2023-05-03T11:45:24.903Z,2.03
2023-05-03T11:47:53.242Z,1.87
2023-05-03T11:50:28.177Z,2.13
2023-05-03T11:52:56.726Z,2.03
2023-05-03T11:55:24.522Z,1.90
2023-05-03T11:57:52.206Z,2.00
2023-05-03T12:00:22.541Z,2.10
2023-05-03T12:02:50.523Z,1.87
2023-05-03T12:05:19.023Z,2.20
2023-05-03T12:07:47.724Z,1.77
2023-05-03T12:10:22.678Z,1.73
2023-05-03T12:12:57.087Z,2.23
2023-05-03T12:15:31.174Z,2.30
2023-05-03T12:18:04.254Z,2.10
2023-05-03T12:23:05.142Z,1.87
2023-05-03T12:25:34.868Z,2.40
2023-05-03T12:30:40.466Z,2.50
2023-05-03T12:33:10.183Z,1.77
2023-05-03T12:35:40.857Z,3.03
2023-05-03T12:38:09.806Z,2.00
2023-05-03T12:40:39.143Z,2.00
2023-05-03T12:43:07.224Z,1.90
2023-05-03T12:45:35.053Z,2.20
2023-05-03T12:48:04.627Z,2.50
2023-05-03T12:50:32.618Z,2.10
2023-05-03T12:53:02.934Z,2.10
2023-05-03T12:55:34.608Z,1.73
2023-05-03T13:00:37.295Z,1.73
2023-05-03T13:05:37.483Z,2.10
2023-05-03T13:08:10.195Z,2.80
2023-05-03T13:10:38.529Z,2.27
2023-05-03T13:13:06.769Z,2.43
2023-05-03T13:15:35.933Z,2.30
2023-05-03T13:18:04.871Z,2.00
2023-05-03T13:20:34.219Z,2.20
2023-05-03T13:23:01.802Z,2.40
2023-05-03T13:25:29.289Z,2.00
2023-05-03T13:27:57.403Z,2.30
2023-05-03T13:30:25.141Z,2.27
2023-05-03T13:32:52.811Z,3.27
2023-05-03T13:35:20.384Z,2.00
2023-05-03T13:37:49.211Z,2.47
2023-05-03T13:40:16.660Z,2.60
2023-05-03T13:42:44.127Z,2.67
2023-05-03T13:45:13.569Z,2.30
2023-05-03T13:47:59.576Z,2.17
2023-05-03T13:50:30.040Z,1.93
2023-05-03T13:52:58.823Z,2.20
2023-05-03T13:55:26.854Z,1.87
2023-05-03T13:57:54.289Z,1.70
2023-05-03T14:00:22.116Z,2.20
2023-05-03T14:02:51.187Z,2.00
2023-05-03T14:05:19.645Z,2.20
2023-05-03T14:07:47.096Z,1.90
2023-05-03T14:10:16.038Z,2.27
2023-05-03T14:12:44.855Z,2.00
2023-05-03T14:15:13.270Z,2.20
2023-05-03T14:17:40.761Z,2.20
2023-05-03T14:20:12.832Z,2.30
2023-05-03T14:22:40.442Z,2.43
2023-05-03T14:25:09.164Z,2.30
2023-05-03T14:27:37.973Z,2.60
2023-05-03T14:30:07.231Z,2.23
2023-05-03T14:32:34.872Z,2.40
2023-05-03T14:35:02.641Z,2.30
2023-05-03T14:37:31.317Z,2.30
2023-05-03T14:39:58.748Z,2.00
2023-05-03T14:42:26.283Z,2.50
2023-05-03T14:44:55.033Z,2.20
2023-05-03T14:47:23.250Z,2.10
2023-05-03T14:49:51.791Z,2.17
2023-05-03T14:52:19.254Z,2.00
2023-05-03T14:54:46.844Z,2.40
2023-05-03T14:57:14.482Z,2.03
2023-05-03T14:59:42.206Z,2.87
2023-05-03T15:02:11.302Z,2.03
2023-05-03T15:04:38.804Z,1.90
2023-05-03T15:07:07.187Z,1.90
2023-05-03T15:09:34.705Z,2.27
2023-05-03T15:12:03.823Z,1.73
2023-05-03T15:14:31.490Z,2.03
2023-05-03T15:16:58.997Z,1.67
2023-05-03T15:19:27.998Z,2.13
2023-05-03T15:21:55.844Z,1.70
2023-05-03T15:24:23.384Z,2.40
2023-05-03T15:26:51.428Z,2.10
2023-05-03T15:29:18.939Z,1.87
2023-05-03T15:31:47.710Z,2.23
2023-05-03T15:34:15.312Z,1.90
2023-05-03T15:36:44.115Z,1.80
2023-05-03T15:39:12.871Z,3.70
2023-05-03T15:41:40.704Z,2.40
2023-05-03T15:44:09.771Z,2.03
2023-05-03T15:46:38.289Z,1.77
2023-05-03T15:49:07.560Z,2.03
2023-05-03T15:51:35.276Z,2.00
2023-05-03T15:54:04.069Z,1.67
2023-05-03T15:56:32.159Z,1.97
2023-05-03T15:58:59.671Z,1.97
2023-05-03T16:01:27.722Z,1.70
2023-05-03T16:03:55.229Z,1.40
2023-05-03T16:06:23.046Z,1.70
2023-05-03T16:08:50.846Z,1.90
2023-05-03T16:11:20.065Z,2.07
2023-05-03T16:13:47.904Z,1.90
2023-05-03T16:16:15.618Z,1.53
2023-05-03T16:18:43.092Z,1.70
2023-05-03T16:21:11.312Z,2.03
2023-05-03T16:23:38.788Z,2.00
2023-05-03T16:26:13.189Z,1.80
2023-05-03T16:28:42.139Z,2.00
2023-05-03T16:31:09.670Z,1.80
2023-05-03T16:33:37.256Z,1.87
2023-05-03T16:36:05.113Z,1.60
2023-05-03T16:38:32.666Z,1.50
2023-05-03T16:41:00.576Z,1.70
2023-05-03T16:43:28.186Z,1.50
2023-05-03T16:45:59.481Z,2.00
2023-05-03T16:48:27.374Z,1.70
2023-05-03T16:50:54.814Z,1.80
2023-05-03T16:53:22.422Z,1.60
2023-05-03T16:55:49.898Z,1.60
2023-05-03T16:58:18.374Z,1.83
2023-05-03T17:00:46.288Z,1.63
2023-05-03T17:03:16.138Z,1.80
2023-05-03T17:05:43.703Z,2.10
2023-05-03T17:08:12.015Z,2.20
2023-05-03T17:10:39.559Z,1.63
2023-05-03T17:13:09.463Z,2.00
2023-05-03T17:15:38.357Z,2.10
2023-05-03T17:18:06.079Z,1.63
2023-05-03T17:20:35.372Z,2.17
2023-05-03T17:23:02.877Z,1.87
2023-05-03T17:25:30.412Z,2.30
2023-05-03T17:27:57.992Z,1.30
2023-05-03T17:30:25.818Z,1.93
2023-05-03T17:32:53.284Z,1.83
2023-05-03T17:35:21.551Z,1.93
2023-05-03T17:37:50.507Z,1.77
2023-05-03T17:40:18.607Z,2.07
2023-05-03T17:42:46.785Z,2.00
2023-05-03T17:45:14.828Z,1.77
2023-05-03T17:47:42.447Z,1.97
2023-05-03T17:50:12.932Z,1.73
2023-05-03T17:52:40.998Z,2.00
2023-05-03T17:55:10.788Z,2.00
2023-05-03T17:57:39.865Z,2.00
2023-05-03T18:00:11.081Z,1.90
2023-05-03T18:02:38.652Z,1.40
2023-05-03T18:05:06.785Z,1.90
2023-05-03T18:07:34.309Z,1.90
2023-05-03T18:10:02.491Z,1.90
2023-05-03T18:12:31.749Z,2.13
2023-05-03T18:15:00.236Z,1.80
2023-05-03T18:17:28.412Z,1.93
2023-05-03T18:19:56.276Z,1.67
2023-05-03T18:22:25.677Z,1.87
2023-05-03T18:24:55.096Z,1.80
2023-05-03T18:27:22.792Z,1.77
2023-05-03T18:29:51.591Z,2.00
2023-05-03T18:32:19.215Z,1.70
2023-05-03T18:34:46.885Z,2.20
2023-05-03T18:37:14.370Z,2.30
2023-05-03T18:39:41.861Z,2.43
2023-05-03T18:42:09.977Z,2.70
2023-05-03T18:44:39.500Z,2.83
2023-05-03T18:47:10.108Z,2.27
2023-05-03T18:49:37.739Z,2.47
2023-05-03T18:52:06.002Z,2.67
2023-05-03T18:54:33.493Z,2.00
2023-05-03T18:57:01.951Z,2.50
2023-05-03T18:59:29.514Z,2.70
2023-05-03T19:01:57.025Z,2.60
2023-05-03T19:04:26.033Z,2.53
2023-05-03T19:06:53.514Z,1.90
2023-05-03T19:09:20.997Z,3.10
2023-05-03T19:11:49.088Z,2.40
2023-05-03T19:14:16.677Z,2.23
2023-05-03T19:16:44.123Z,2.43
2023-05-03T19:19:13.481Z,2.10
2023-05-03T19:21:43.662Z,1.43
2023-05-03T19:24:12.905Z,2.17
2023-05-03T19:26:41.071Z,1.97
2023-05-03T19:29:08.955Z,1.87
2023-05-03T19:31:36.531Z,1.83
2023-05-03T19:34:04.328Z,2.00
2023-05-03T19:36:31.824Z,2.00
2023-05-03T19:39:03.361Z,2.07
2023-05-03T19:41:30.946Z,1.90
2023-05-03T19:43:58.510Z,1.70
2023-05-03T19:46:26.227Z,2.00
2023-05-03T19:48:53.718Z,1.70
2023-05-03T19:51:21.222Z,2.03
2023-05-03T19:53:49.171Z,2.00
2023-05-03T19:56:20.032Z,2.23
2023-05-03T19:58:47.501Z,1.47
2023-05-03T20:01:15.007Z,2.00
2023-05-03T20:03:43.293Z,1.90
2023-05-03T20:06:11.038Z,1.90
2023-05-03T20:08:38.911Z,2.10
2023-05-03T20:11:06.455Z,2.43
2023-05-03T20:13:35.696Z,1.93
2023-05-03T20:16:04.668Z,1.80
2023-05-03T20:18:32.205Z,2.20
2023-05-03T20:20:59.686Z,1.67
2023-05-03T20:23:27.693Z,2.30
2023-05-03T20:25:55.321Z,1.97
2023-05-03T20:28:23.059Z,2.47
2023-05-03T20:30:52.450Z,2.50
2023-05-03T20:33:19.956Z,2.10
2023-05-03T20:35:47.510Z,1.97
2023-05-03T20:38:15.092Z,2.27
2023-05-03T20:40:43.019Z,1.73
2023-05-03T20:43:10.899Z,1.90
2023-05-03T20:45:38.369Z,1.80
2023-05-03T20:48:07.981Z,2.07
2023-05-03T20:50:35.628Z,2.20
2023-05-03T20:53:03.467Z,2.20
2023-05-03T20:55:30.972Z,2.40
2023-05-03T20:57:58.404Z,2.40
2023-05-03T21:00:27.082Z,2.10
2023-05-03T21:02:54.844Z,2.57
2023-05-03T21:05:23.990Z,3.00
2023-05-03T21:07:51.498Z,2.50
2023-05-03T21:10:19.090Z,3.00
2023-05-03T21:12:46.600Z,2.43
2023-05-03T21:15:14.077Z,2.77
2023-05-03T21:17:41.838Z,2.80
2023-05-03T21:20:10.458Z,2.70
2023-05-03T21:22:39.289Z,2.53
2023-05-03T21:25:08.107Z,2.83
2023-05-03T21:27:35.584Z,2.10
2023-05-03T21:30:03.448Z,2.43
2023-05-03T21:32:31.139Z,2.90
2023-05-03T21:34:58.589Z,2.37
2023-05-03T21:37:26.322Z,2.67
2023-05-03T21:40:01.854Z,3.13
2023-05-03T21:42:29.809Z,2.73
2023-05-03T21:44:57.714Z,3.17
2023-05-03T21:47:25.500Z,3.03
2023-05-03T21:49:53.111Z,3.03
2023-05-03T21:52:20.722Z,3.20
2023-05-03T21:54:48.155Z,3.93
2023-05-03T21:57:18.842Z,2.90
2023-05-03T21:59:46.632Z,2.93
2023-05-03T22:02:14.105Z,3.37
2023-05-03T22:04:41.569Z,2.80
2023-05-03T22:07:09.101Z,3.40
2023-05-03T22:09:36.731Z,3.00
2023-05-03T22:12:15.503Z,3.20
2023-05-03T22:14:51.943Z,5.27
2023-05-03T22:17:19.830Z,3.63
2023-05-03T22:19:47.344Z,3.40
2023-05-03T22:22:14.950Z,4.10
2023-05-03T22:24:42.414Z,3.10
2023-05-03T22:27:09.934Z,3.83
2023-05-03T22:29:37.581Z,3.17
2023-05-03T22:32:07.954Z,3.10
2023-05-03T22:34:36.154Z,2.93
2023-05-03T22:37:03.590Z,3.00
2023-05-03T22:39:32.250Z,2.70
2023-05-03T22:41:59.968Z,2.60
2023-05-03T22:44:27.837Z,2.70
2023-05-03T22:46:55.443Z,2.47
2023-05-03T22:49:24.523Z,2.67
2023-05-03T22:51:52.264Z,3.00
2023-05-03T22:54:20.114Z,2.77
2023-05-03T22:56:47.552Z,3.27
2023-05-03T22:59:15.050Z,3.03
2023-05-03T23:01:43.903Z,2.90
2023-05-03T23:04:11.338Z,3.67
2023-05-03T23:06:40.225Z,3.10
2023-05-03T23:09:07.767Z,2.90
2023-05-03T23:11:35.199Z,3.37
2023-05-03T23:14:02.723Z,2.97
2023-05-03T23:16:30.305Z,2.97
2023-05-03T23:18:57.796Z,3.10
2023-05-03T23:21:25.313Z,5.20
2023-05-03T23:23:54.097Z,3.97
2023-05-03T23:26:21.577Z,3.90
2023-05-03T23:28:49.541Z,3.70
2023-05-03T23:31:17.433Z,3.90
2023-05-03T23:33:45.212Z,3.43
2023-05-03T23:36:12.660Z,3.70
2023-05-03T23:38:40.261Z,2.87
2023-05-03T23:41:09.089Z,3.00
2023-05-03T23:43:36.545Z,3.23
2023-05-03T23:46:04.056Z,3.33
2023-05-03T23:48:31.716Z,3.40
2023-05-03T23:50:59.175Z,3.70
2023-05-03T23:53:26.632Z,4.00
2023-05-03T23:55:54.033Z,3.43
2023-05-03T23:58:22.916Z,4.03
